Portada
METAR-TAF:

METAR-TAF

Aeropuertos :

Millinocket Municipal Airport

Millinocket, Maine, Estados Unidos

latitud: 45-38-52N, longitud: 068-41-31W, altitud: 124 m

Observación

El informe se hizo hace 17 minutos, a las 16:36 UTC
Viento 4 kt del norte-noroeste
Temperatura -1°C
Humedad 86%
Presión 1000 hPa
Visibilidad: 2.0 km
Cielo nuboso a una altura de 700 ft
Cielo nuboso a una altura de 1300 ft
Cielo cubierto a una altura de 2100 ft
poca nieve, neblina

METAR: KMLT 171636Z AUTO 34004KT 1 1/4SM -SN BR BKN007 BKN013 OVC021 M01/M03 A2954 RMK AO2 P0000 T10111028

Hora: 11:53 (16:53 UTC)


TAF: falta

Observaciones y pronósticos meteorológicos de más de 4000 aeropuertos (mensajes METAR y TAF).

Los puntos amarillos y rojos representan las estaciones disponibles.

Ponga el ratón en el punto deseado para ver el nombre de la estación.

Haga clic para ver las observaciones y los pronósticos meteorológicos.

Para cambiar el mapa : haga clic en los botones verdes con una cruz de color negro para hacer un zoom, en el botón verde con un guión para alejar o en las flechas verdes para mapas adyacentes.


METAR-TAF: